Latest Weather Observations for Gympie

IDQ60801

Issued at 10:32 pm EST Wednesday 26 September 2018 (issued every 10 minutes, with the page automatically refreshed every 10 minutes)

About weather observations | Map of weather stations | Latest weather observations for QLD | Other Formats
Station Details ID: 040093 Name: GYMPIE Lat: -26.18 Lon: 152.64 Height: 64.5 m
Data from the previous 72 hours. | See also: Recent months at Gympie
Date/Time
EST
Temp
°C
App
Temp
°C
Dew
Point
°C
Rel
Hum
%
Delta-T
°C
Wind Press
QNH
hPa
Press
MSL
hPa
Rain since
9am
mm
Dir  Spd
km/h
Gust
km/h
Spd
kts
Gust
kts
26/10:30pm - - - - - NNE 2 4 1 2 1020.8 1020.7 0.0
26/10:00pm - - - - - CALM 0 0 0 0 1020.8 1020.7 0.0
26/09:30pm - - - - - N 2 2 1 1 1020.6 1020.5 0.0
26/09:00pm - - - - - CALM 0 0 0 0 1020.5 1020.4 0.0
26/08:30pm - - - - - CALM 0 0 0 0 1020.4 1020.3 0.0
26/08:00pm - - - - - CALM 0 0 0 0 1020.3 1020.2 0.0
26/07:30pm - - - - - SSE 2 2 1 1 1019.8 1019.7 0.0
26/07:00pm - - - - - CALM 0 0 0 0 1019.4 1019.3 0.0
26/06:30pm - - - - - ESE 6 7 3 4 1019.0 1018.9 0.0
26/06:00pm 17.8 18.1 13.3 75 2.5 ESE 4 7 2 4 1018.7 1018.6 0.0
26/05:30pm 18.9 18.7 13.5 71 3.1 E 7 17 4 9 1018.2 1018.1 0.0
26/05:00pm 19.6 18.7 13.8 69 3.3 E 11 19 6 10 1018.0 1017.9 0.0
26/04:30pm 20.2 18.4 13.2 64 4.0 ESE 15 24 8 13 1017.6 1017.5 0.0
26/04:00pm 21.6 19.6 12.7 57 5.1 ESE 15 28 8 15 1017.4 1017.3 0.0
26/03:30pm 25.7 24.8 12.5 44 7.6 NE 9 17 5 9 1017.1 1017.0 0.0
26/03:00pm 25.2 24.2 13.4 48 6.9 E 11 17 6 9 1017.0 1016.9 0.0
26/02:30pm 24.5 23.7 12.8 48 6.8 E 9 17 5 9 1017.4 1017.3 0.0
26/02:00pm 24.8 24.4 13.0 47 6.8 ESE 7 17 4 9 1017.9 1017.8 0.0
26/01:30pm 23.2 22.2 13.4 54 5.7 ESE 11 20 6 11 1018.6 1018.5 0.0
26/01:00pm 23.3 23.3 14.3 57 5.3 ENE 7 17 4 9 1019.1 1019.0 0.0
26/12:30pm 23.6 23.5 13.8 54 5.7 E 7 15 4 8 1019.4 1019.3 0.0
26/12:00pm 23.4 22.9 12.7 51 6.1 NE 7 15 4 8 1020.1 1020.0 0.0
26/11:30am 22.7 21.9 12.9 54 5.6 NNE 9 20 5 11 1020.7 1020.6 0.0
26/11:00am 21.7 21.6 13.9 61 4.5 NNE 7 15 4 8 1021.2 1021.1 0.0
26/10:30am 22.0 21.5 13.9 60 4.7 N 9 15 5 8 1021.6 1021.5 0.0
26/10:00am 21.8 22.8 14.2 62 4.4 E 2 7 1 4 1022.1 1022.0 0.0
26/09:30am 20.3 20.8 14.0 67 3.6 W 4 7 2 4 1022.4 1022.3 0.0
26/09:00am 19.8 20.4 15.2 75 2.7 SE 6 9 3 5 1022.5 1022.4 4.0
26/08:30am 18.5 19.5 15.4 82 1.8 SE 4 6 2 3 1022.5 1022.4 4.0
26/08:00am 16.5 17.7 14.9 90 0.9 SSE 2 4 1 2 1022.4 1022.3 4.0
26/07:30am 14.6 15.8 13.8 95 0.4 CALM 0 4 0 2 1022.2 1022.1 4.0
26/07:00am 13.1 14.1 13.1 100 0.0 CALM 0 0 0 0 1022.0 1021.9 4.0
26/06:30am 11.2 11.6 11.2 100 0.0 CALM 0 0 0 0 1021.6 1021.5 4.0
26/06:00am 10.4 10.6 10.4 100 0.0 CALM 0 2 0 1 1021.3 1021.2 4.0
26/05:30am 10.7 10.9 10.7 100 0.0 CALM 0 0 0 0 1021.1 1021.0 4.0
26/05:00am 11.1 11.5 11.1 100 0.0 CALM 0 0 0 0 1020.9 1020.8 4.0
26/04:30am 11.3 11.7 11.3 100 0.0 CALM 0 0 0 0 1020.7 1020.6 4.0
26/04:00am 11.4 11.8 11.4 100 0.0 CALM 0 0 0 0 1020.5 1020.4 4.0
26/03:30am 12.2 12.8 12.0 99 0.1 CALM 0 0 0 0 1020.6 1020.5 4.0
26/03:00am 12.7 13.5 12.7 100 0.0 CALM 0 0 0 0 1020.7 1020.6 4.0
26/02:30am 13.1 14.1 13.1 100 0.0 CALM 0 0 0 0 1021.0 1020.9 4.0
26/02:00am 12.6 13.0 12.6 100 0.0 NW 2 6 1 3 1021.5 1021.4 4.0
26/01:30am 12.9 13.4 12.9 100 0.0 SW 2 4 1 2 1022.2 1022.1 4.0
26/01:00am 13.1 14.0 12.9 99 0.1 CALM 0 0 0 0 1022.3 1022.2 3.8
26/12:30am 13.0 13.8 12.7 98 0.2 CALM 0 0 0 0 1022.5 1022.4 3.8
26/12:00am 13.7 14.8 13.5 99 0.1 CALM 0 0 0 0 1022.7 1022.6 3.8
 
Date/Time
EST
Temp
°C
App
Temp
°C
Dew
Point
°C
Rel
Hum
%
Delta-T
°C
Wind Press
QNH
hPa
Press
MSL
hPa
Rain since
9am
mm
Dir  Spd
km/h
Gust
km/h
Spd
kts
Gust
kts
25/11:30pm 13.8 14.9 13.5 98 0.2 CALM 0 0 0 0 1023.1 1022.9 3.8
25/11:00pm 14.1 15.3 13.9 99 0.1 CALM 0 2 0 1 1023.3 1023.1 3.8
25/10:30pm 14.1 15.3 13.9 99 0.1 CALM 0 0 0 0 1023.3 1023.1 3.8
25/10:00pm 14.5 15.9 14.3 99 0.1 CALM 0 0 0 0 1023.2 1023.0 3.8
25/09:30pm 14.8 16.3 14.6 99 0.1 CALM 0 0 0 0 1023.4 1023.2 3.8
25/09:00pm 14.9 16.0 14.7 99 0.1 N 2 4 1 2 1023.6 1023.4 3.8
25/08:30pm 14.9 16.4 14.6 98 0.2 CALM 0 2 0 1 1023.6 1023.4 3.8
25/08:00pm 15.1 16.7 14.8 98 0.2 CALM 0 0 0 0 1023.5 1023.3 3.8
25/07:30pm 15.2 16.7 14.7 97 0.3 CALM 0 0 0 0 1023.3 1023.1 3.8
25/07:00pm 15.2 16.7 14.7 97 0.3 CALM 0 2 0 1 1022.9 1022.8 3.6
25/06:30pm 15.3 15.4 14.5 95 0.5 SSE 7 11 4 6 1022.9 1022.8 1.6
25/06:00pm 16.1 16.3 14.6 91 0.9 SSE 7 11 4 6 1022.4 1022.3 1.2
25/05:30pm 16.9 16.7 14.7 87 1.3 SSE 9 15 5 8 1021.9 1021.8 1.0
25/05:00pm 16.9 16.6 14.5 86 1.4 SE 9 19 5 10 1021.8 1021.7 1.0
25/04:30pm 18.8 17.6 14.1 74 2.7 ESE 13 22 7 12 1021.3 1021.2 1.0
25/04:00pm 19.7 18.3 14.5 72 3.0 ESE 15 24 8 13 1021.3 1021.2 1.0
25/03:30pm 20.0 19.2 15.0 73 2.9 SE 13 22 7 12 1021.1 1021.0 1.0
25/03:00pm 18.6 18.1 14.9 79 2.2 SE 11 17 6 9 1021.1 1021.0 1.0
25/02:30pm 19.6 18.6 14.6 73 2.9 E 13 22 7 12 1021.1 1021.0 1.0
25/02:00pm 21.2 21.5 16.0 72 3.1 E 9 15 5 8 1021.1 1021.0 1.0
25/01:30pm 18.2 17.7 16.0 87 1.3 E 13 20 7 11 1021.6 1021.5 1.0
25/01:00pm 18.2 18.9 16.0 87 1.3 NE 7 15 4 8 1022.1 1022.0 0.8
25/12:30pm 18.4 18.0 15.1 81 1.9 NNE 11 19 6 10 1022.2 1022.1 0.4
25/12:00pm 19.1 18.9 15.6 80 2.1 SE 11 20 6 11 1022.5 1022.4 0.4
25/11:30am 20.5 21.2 15.5 73 3.0 NE 6 13 3 7 1022.9 1022.8 0.4
25/11:00am 20.2 21.0 15.8 76 2.6 NE 6 15 3 8 1023.5 1023.3 0.4
25/10:30am 18.3 17.9 15.2 82 1.8 SE 11 20 6 11 1024.0 1023.8 0.4
25/10:00am 22.2 23.1 16.0 68 3.7 SE 6 11 3 6 1023.9 1023.7 0.0
25/09:30am 19.4 19.7 15.1 76 2.5 SE 7 15 4 8 1024.3 1024.1 0.0
25/09:00am 19.1 19.9 15.8 81 2.0 SSE 6 9 3 5 1024.3 1024.1 0.8
25/08:30am 18.2 18.6 15.3 83 1.7 SSE 7 13 4 7 1024.2 1024.0 0.8
25/08:00am 17.7 18.2 15.1 85 1.5 SSE 6 9 3 5 1024.0 1023.8 0.8
25/07:30am 17.0 17.5 15.5 91 0.9 S 7 13 4 7 1023.9 1023.7 0.8
25/07:00am 16.2 16.8 15.4 95 0.5 SSE 6 9 3 5 1023.4 1023.2 0.8
25/06:30am 16.0 17.4 15.4 96 0.3 SE 2 4 1 2 1022.8 1022.7 0.8
25/06:00am 15.6 16.5 15.0 96 0.3 S 4 7 2 4 1022.6 1022.5 0.6
25/05:30am 15.8 16.2 15.2 96 0.3 SSE 7 11 4 6 1022.4 1022.3 0.6
25/05:00am 15.8 16.4 15.2 96 0.3 S 6 7 3 4 1022.4 1022.3 0.4
25/04:30am 15.9 16.8 15.1 95 0.5 S 4 7 2 4 1022.2 1022.1 0.0
25/04:00am 15.8 16.7 15.2 96 0.3 SSE 4 6 2 3 1021.7 1021.6 0.0
25/03:30am 15.6 16.5 15.0 96 0.3 SSE 4 6 2 3 1021.8 1021.7 0.0
25/03:00am 15.6 16.0 14.8 95 0.5 S 6 7 3 4 1021.9 1021.8 0.0
25/02:30am 16.1 17.1 15.3 95 0.5 SSE 4 7 2 4 1022.1 1022.0 0.0
25/02:00am 16.4 17.0 15.3 93 0.6 SSE 6 11 3 6 1022.4 1022.3 0.0
25/01:30am 15.8 17.1 14.2 90 0.9 CALM 0 0 0 0 1022.7 1022.6 0.0
25/01:00am 16.2 16.9 14.6 90 0.9 SE 4 6 2 3 1023.2 1023.0 0.0
25/12:30am 16.2 16.5 14.4 89 1.0 SSE 6 9 3 5 1023.4 1023.2 0.0
25/12:00am 16.4 16.6 14.1 86 1.3 SSE 6 9 3 5 1023.6 1023.4 0.0
 
Date/Time
EST
Temp
°C
App
Temp
°C
Dew
Point
°C
Rel
Hum
%
Delta-T
°C
Wind Press
QNH
hPa
Press
MSL
hPa
Rain since
9am
mm
Dir  Spd
km/h
Gust
km/h
Spd
kts
Gust
kts
24/11:30pm 16.6 16.8 14.2 86 1.4 SSE 6 7 3 4 1023.7 1023.5 0.0
24/11:00pm 16.4 16.4 14.1 86 1.3 S 7 11 4 6 1023.7 1023.5 0.0
24/10:30pm 16.6 16.6 13.7 83 1.6 S 6 9 3 5 1023.6 1023.4 0.0
24/10:00pm 16.6 16.6 13.7 83 1.6 SSE 6 15 3 8 1023.6 1023.4 0.0
24/09:30pm 17.2 17.1 13.9 81 1.9 SSE 7 15 4 8 1023.6 1023.4 0.0
24/09:00pm 17.6 17.3 14.3 81 1.9 SSE 9 17 5 9 1023.5 1023.3 0.0
24/08:30pm 17.3 17.4 13.8 80 2.0 SSE 6 7 3 4 1023.2 1023.0 0.0
24/08:00pm 17.5 17.4 13.8 79 2.1 SSE 7 15 4 8 1022.9 1022.8 0.0
24/07:30pm 17.9 17.7 13.6 76 2.4 SSE 7 11 4 6 1022.4 1022.3 0.0
24/07:00pm 18.4 17.8 13.5 73 2.8 SSE 9 13 5 7 1022.0 1021.9 0.0
24/06:30pm 18.7 18.6 13.3 71 3.1 SE 6 9 3 5 1021.5 1021.4 0.0
24/06:00pm 19.9 18.5 13.4 66 3.7 SE 13 26 7 14 1021.1 1021.0 0.0
24/05:30pm 20.8 18.6 12.2 58 4.8 SE 15 28 8 15 1020.7 1020.6 0.0
24/05:00pm 21.8 19.8 12.6 56 5.2 SE 15 30 8 16 1020.3 1020.2 0.0
24/04:30pm 23.1 21.4 12.4 51 6.1 SE 13 20 7 11 1020.0 1019.9 0.0
24/04:00pm 23.8 22.2 12.8 50 6.3 E 13 24 7 13 1019.7 1019.6 0.0
24/03:30pm 23.7 21.0 13.0 51 6.2 E 19 28 10 15 1019.6 1019.5 0.0
24/03:00pm 23.6 20.9 11.6 47 6.8 ESE 17 30 9 16 1019.5 1019.4 0.0
24/02:30pm 24.5 22.3 12.1 46 7.1 E 15 28 8 15 1019.7 1019.6 0.0
24/02:00pm 25.7 23.4 10.3 38 8.6 ESE 13 28 7 15 1019.9 1019.8 0.0
24/01:30pm 25.8 24.4 10.8 39 8.4 SE 9 17 5 9 1020.3 1020.2 0.0
24/01:00pm 25.4 23.5 10.4 39 8.3 SE 11 20 6 11 1020.8 1020.7 0.0
24/12:30pm 23.8 23.0 11.8 47 6.8 SE 7 17 4 9 1021.4 1021.3 0.0
24/12:00pm 24.9 24.4 12.2 45 7.3 SSE 6 11 3 6 1021.7 1021.6 0.0
24/11:30am 24.5 23.3 11.5 44 7.4 SE 9 19 5 10 1022.3 1022.2 0.0
24/11:00am - - - - - SE 7 15 4 8 1022.6 1022.5 0.0
24/10:30am - - - - - SE 9 17 5 9 1023.2 1023.0 0.0
24/10:00am - - - - - SSE 7 11 4 6 1023.5 1023.3 0.0
24/09:30am - - - - - SE 7 13 4 7 1023.7 1023.5 0.0
24/09:00am - - - - - SE 6 11 3 6 1023.6 1023.4 0.0
24/08:30am - - - - - SE 4 7 2 4 1023.6 1023.4 0.0
24/08:00am - - - - - SE 2 4 1 2 1023.5 1023.3 0.0
24/07:30am 15.2 15.9 12.2 82 1.6 CALM 0 0 0 0 1023.4 1023.2 0.0
24/07:00am 13.6 14.1 11.5 87 1.1 CALM 0 0 0 0 1023.2 1023.0 0.0
24/06:30am 11.5 11.8 11.0 97 0.3 CALM 0 0 0 0 1022.8 1022.7 0.0
24/06:00am 10.1 10.0 9.6 97 0.2 CALM 0 0 0 0 1022.7 1022.6 0.0
24/05:30am 10.3 10.4 10.0 98 0.2 CALM 0 0 0 0 1022.4 1022.3 0.0
24/05:00am 10.4 10.4 9.9 97 0.3 CALM 0 0 0 0 1022.1 1022.0 0.0
24/04:30am 10.9 11.1 10.4 97 0.3 CALM 0 0 0 0 1021.8 1021.7 0.0
24/04:00am 10.8 10.9 10.2 96 0.3 CALM 0 0 0 0 1021.7 1021.6 0.0
24/03:30am 11.3 11.5 10.7 96 0.3 CALM 0 0 0 0 1021.5 1021.4 0.0
24/03:00am 11.3 11.6 10.8 97 0.3 CALM 0 0 0 0 1021.5 1021.4 0.0
24/02:30am 11.1 11.4 10.8 98 0.2 CALM 0 0 0 0 1021.7 1021.6 0.0
24/02:00am 11.0 11.2 10.5 97 0.3 CALM 0 0 0 0 1021.9 1021.8 0.0
24/01:30am 11.1 11.3 10.5 96 0.3 CALM 0 0 0 0 1022.1 1022.0 0.0
24/01:00am 11.1 11.2 10.2 94 0.5 CALM 0 0 0 0 1022.4 1022.3 0.0
24/12:30am 11.4 11.6 10.6 95 0.4 CALM 0 0 0 0 1022.7 1022.6 0.0
24/12:00am 11.7 11.9 10.4 92 0.7 CALM 0 0 0 0 1022.8 1022.7 0.0
 
Date/Time
EST
Temp
°C
App
Temp
°C
Dew
Point
°C
Rel
Hum
%
Delta-T
°C
Wind Press
QNH
hPa
Press
MSL
hPa
Rain since
9am
mm
Dir  Spd
km/h
Gust
km/h
Spd
kts
Gust
kts
23/11:30pm 12.0 12.2 10.4 90 0.8 CALM 0 0 0 0 1023.2 1023.0 0.0
23/11:00pm 12.5 12.7 10.7 89 0.9 CALM 0 0 0 0 1023.2 1023.0 0.0

Other Formats:

Comma delimited format used in spreadsheet applications
http://www.bom.gov.au/fwo/IDQ60801/IDQ60801.94566.axf

JavaScript Object Notation format (JSON) in row-major order
http://www.bom.gov.au/fwo/IDQ60801/IDQ60801.94566.json